sensor_id;sensor_type;location;lat;lon;timestamp;temperature;humidity
19397;DHT22;9834;48.076;11.878;2022-12-24T00:00:00;9.60;99.90
19397;DHT22;9834;48.076;11.878;2022-12-24T00:02:29;9.60;99.90
19397;DHT22;9834;48.076;11.878;2022-12-24T00:04:56;9.50;99.90
19397;DHT22;9834;48.076;11.878;2022-12-24T00:07:23;9.50;99.90
19397;DHT22;9834;48.076;11.878;2022-12-24T00:09:50;9.50;99.90
19397;DHT22;9834;48.076;11.878;2022-12-24T00:12:17;9.50;99.90
19397;DHT22;9834;48.076;11.878;2022-12-24T00:14:46;9.40;99.90
19397;DHT22;9834;48.076;11.878;2022-12-24T00:17:13;9.40;99.90
19397;DHT22;9834;48.076;11.878;2022-12-24T00:19:41;9.40;99.90
19397;DHT22;9834;48.076;11.878;2022-12-24T00:22:08;9.40;99.90
19397;DHT22;9834;48.076;11.878;2022-12-24T00:24:35;9.40;99.90
19397;DHT22;9834;48.076;11.878;2022-12-24T00:27:03;9.50;99.90
19397;DHT22;9834;48.076;11.878;2022-12-24T00:29:33;9.50;99.90
19397;DHT22;9834;48.076;11.878;2022-12-24T00:32:00;9.50;99.90
19397;DHT22;9834;48.076;11.878;2022-12-24T00:34:29;9.50;99.90
19397;DHT22;9834;48.076;11.878;2022-12-24T00:36:57;9.60;99.90
19397;DHT22;9834;48.076;11.878;2022-12-24T00:39:24;9.60;99.90
19397;DHT22;9834;48.076;11.878;2022-12-24T00:41:51;9.60;99.90
19397;DHT22;9834;48.076;11.878;2022-12-24T00:44:18;9.60;99.90
19397;DHT22;9834;48.076;11.878;2022-12-24T00:46:45;9.50;99.90
19397;DHT22;9834;48.076;11.878;2022-12-24T00:49:13;9.60;99.90
19397;DHT22;9834;48.076;11.878;2022-12-24T00:51:40;9.60;99.90
19397;DHT22;9834;48.076;11.878;2022-12-24T00:54:08;9.60;99.90
19397;DHT22;9834;48.076;11.878;2022-12-24T00:56:35;9.60;99.90
19397;DHT22;9834;48.076;11.878;2022-12-24T00:59:02;9.60;99.90
19397;DHT22;9834;48.076;11.878;2022-12-24T01:01:29;9.60;99.90
19397;DHT22;9834;48.076;11.878;2022-12-24T01:03:56;9.60;99.90
19397;DHT22;9834;48.076;11.878;2022-12-24T01:06:37;9.70;99.90
19397;DHT22;9834;48.076;11.878;2022-12-24T01:09:04;9.70;99.90
19397;DHT22;9834;48.076;11.878;2022-12-24T01:11:33;9.70;99.90
19397;DHT22;9834;48.076;11.878;2022-12-24T01:14:02;9.70;99.90
19397;DHT22;9834;48.076;11.878;2022-12-24T01:16:29;9.70;99.90
19397;DHT22;9834;48.076;11.878;2022-12-24T01:18:56;9.70;99.90
19397;DHT22;9834;48.076;11.878;2022-12-24T01:21:23;9.70;99.90
19397;DHT22;9834;48.076;11.878;2022-12-24T01:23:53;9.70;99.90
19397;DHT22;9834;48.076;11.878;2022-12-24T01:26:20;9.70;99.90
19397;DHT22;9834;48.076;11.878;2022-12-24T01:28:48;9.80;99.90
19397;DHT22;9834;48.076;11.878;2022-12-24T01:31:17;9.70;99.90
19397;DHT22;9834;48.076;11.878;2022-12-24T01:33:48;9.70;99.90
19397;DHT22;9834;48.076;11.878;2022-12-24T01:36:17;9.60;99.90
19397;DHT22;9834;48.076;11.878;2022-12-24T01:38:44;9.60;99.90
19397;DHT22;9834;48.076;11.878;2022-12-24T01:41:16;9.60;99.90
19397;DHT22;9834;48.076;11.878;2022-12-24T01:44:23;9.50;99.90
19397;DHT22;9834;48.076;11.878;2022-12-24T01:46:56;9.50;99.90
19397;DHT22;9834;48.076;11.878;2022-12-24T01:49:25;9.50;99.90
19397;DHT22;9834;48.076;11.878;2022-12-24T01:51:56;9.40;99.90
19397;DHT22;9834;48.076;11.878;2022-12-24T01:54:27;9.40;99.90
19397;DHT22;9834;48.076;11.878;2022-12-24T01:56:59;9.30;99.90
19397;DHT22;9834;48.076;11.878;2022-12-24T01:59:29;9.40;99.90
19397;DHT22;9834;48.076;11.878;2022-12-24T02:01:56;9.30;99.90
19397;DHT22;9834;48.076;11.878;2022-12-24T02:04:31;9.30;99.90
19397;DHT22;9834;48.076;11.878;2022-12-24T02:07:00;9.40;99.90
19397;DHT22;9834;48.076;11.878;2022-12-24T02:09:29;9.40;99.90
19397;DHT22;9834;48.076;11.878;2022-12-24T02:11:57;9.50;99.90
19397;DHT22;9834;48.076;11.878;2022-12-24T02:14:25;9.50;99.90
19397;DHT22;9834;48.076;11.878;2022-12-24T02:17:00;9.50;99.90
19397;DHT22;9834;48.076;11.878;2022-12-24T02:23:06;9.50;99.90
19397;DHT22;9834;48.076;11.878;2022-12-24T02:25:49;9.40;99.90
19397;DHT22;9834;48.076;11.878;2022-12-24T02:28:31;9.40;99.90
19397;DHT22;9834;48.076;11.878;2022-12-24T02:31:05;9.30;99.90
19397;DHT22;9834;48.076;11.878;2022-12-24T02:33:37;9.30;99.90
19397;DHT22;9834;48.076;11.878;2022-12-24T02:36:11;9.30;99.90
19397;DHT22;9834;48.076;11.878;2022-12-24T02:38:43;9.30;99.90
19397;DHT22;9834;48.076;11.878;2022-12-24T02:41:18;9.30;99.90
19397;DHT22;9834;48.076;11.878;2022-12-24T02:43:49;9.20;99.90
19397;DHT22;9834;48.076;11.878;2022-12-24T02:46:20;9.30;99.90
19397;DHT22;9834;48.076;11.878;2022-12-24T02:48:49;9.20;99.90
19397;DHT22;9834;48.076;11.878;2022-12-24T02:51:21;9.20;99.90
19397;DHT22;9834;48.076;11.878;2022-12-24T02:53:49;9.20;99.90
19397;DHT22;9834;48.076;11.878;2022-12-24T02:56:36;9.20;99.90
19397;DHT22;9834;48.076;11.878;2022-12-24T02:59:34;9.10;99.90
19397;DHT22;9834;48.076;11.878;2022-12-24T03:02:15;9.10;99.90
19397;DHT22;9834;48.076;11.878;2022-12-24T03:04:52;9.10;99.90
19397;DHT22;9834;48.076;11.878;2022-12-24T03:07:27;9.10;99.90
19397;DHT22;9834;48.076;11.878;2022-12-24T03:10:06;9.10;99.90
19397;DHT22;9834;48.076;11.878;2022-12-24T03:12:37;9.10;99.90
19397;DHT22;9834;48.076;11.878;2022-12-24T03:15:08;9.10;99.90
19397;DHT22;9834;48.076;11.878;2022-12-24T03:17:41;9.10;99.90
19397;DHT22;9834;48.076;11.878;2022-12-24T03:20:10;9.10;99.90
19397;DHT22;9834;48.076;11.878;2022-12-24T03:22:38;9.20;99.90
19397;DHT22;9834;48.076;11.878;2022-12-24T03:25:09;9.20;99.90
19397;DHT22;9834;48.076;11.878;2022-12-24T03:27:37;9.20;99.90
19397;DHT22;9834;48.076;11.878;2022-12-24T03:30:09;9.10;99.90
19397;DHT22;9834;48.076;11.878;2022-12-24T03:32:38;9.10;99.90
19397;DHT22;9834;48.076;11.878;2022-12-24T03:35:14;9.10;99.90
19397;DHT22;9834;48.076;11.878;2022-12-24T03:37:41;9.10;99.90
19397;DHT22;9834;48.076;11.878;2022-12-24T03:40:10;9.10;99.90
19397;DHT22;9834;48.076;11.878;2022-12-24T03:42:37;9.10;99.90
19397;DHT22;9834;48.076;11.878;2022-12-24T03:45:05;9.10;99.90
19397;DHT22;9834;48.076;11.878;2022-12-24T03:47:32;9.20;99.90
19397;DHT22;9834;48.076;11.878;2022-12-24T03:50:01;9.30;99.90
19397;DHT22;9834;48.076;11.878;2022-12-24T03:52:28;9.30;99.90
19397;DHT22;9834;48.076;11.878;2022-12-24T03:54:58;9.40;99.90
19397;DHT22;9834;48.076;11.878;2022-12-24T03:57:27;9.40;99.90
19397;DHT22;9834;48.076;11.878;2022-12-24T03:59:54;9.50;99.90
19397;DHT22;9834;48.076;11.878;2022-12-24T04:02:22;9.60;99.90
19397;DHT22;9834;48.076;11.878;2022-12-24T04:04:49;9.60;99.90
19397;DHT22;9834;48.076;11.878;2022-12-24T04:07:19;9.70;99.90
19397;DHT22;9834;48.076;11.878;2022-12-24T04:09:48;9.80;99.90
19397;DHT22;9834;48.076;11.878;2022-12-24T04:12:17;9.80;99.90
19397;DHT22;9834;48.076;11.878;2022-12-24T04:14:44;9.90;99.90
19397;DHT22;9834;48.076;11.878;2022-12-24T04:17:12;9.90;99.90
19397;DHT22;9834;48.076;11.878;2022-12-24T04:19:42;9.90;99.90
19397;DHT22;9834;48.076;11.878;2022-12-24T04:22:09;9.90;99.90
19397;DHT22;9834;48.076;11.878;2022-12-24T04:24:37;9.90;99.90
19397;DHT22;9834;48.076;11.878;2022-12-24T04:27:05;9.90;99.90
19397;DHT22;9834;48.076;11.878;2022-12-24T04:29:32;9.90;99.90
19397;DHT22;9834;48.076;11.878;2022-12-24T04:31:59;9.90;99.90
19397;DHT22;9834;48.076;11.878;2022-12-24T04:34:26;9.90;99.90
19397;DHT22;9834;48.076;11.878;2022-12-24T04:36:55;9.90;99.90
19397;DHT22;9834;48.076;11.878;2022-12-24T04:39:22;10.00;99.90
19397;DHT22;9834;48.076;11.878;2022-12-24T04:41:53;10.00;99.90
19397;DHT22;9834;48.076;11.878;2022-12-24T04:44:20;10.00;99.90
19397;DHT22;9834;48.076;11.878;2022-12-24T04:46:47;10.00;99.90
19397;DHT22;9834;48.076;11.878;2022-12-24T04:49:15;10.00;99.90
19397;DHT22;9834;48.076;11.878;2022-12-24T04:51:42;10.00;99.90
19397;DHT22;9834;48.076;11.878;2022-12-24T04:54:09;10.00;99.90
19397;DHT22;9834;48.076;11.878;2022-12-24T04:56:36;10.00;99.90
19397;DHT22;9834;48.076;11.878;2022-12-24T04:59:05;9.90;99.90
19397;DHT22;9834;48.076;11.878;2022-12-24T05:01:32;9.90;99.90
19397;DHT22;9834;48.076;11.878;2022-12-24T05:03:59;9.80;99.90
19397;DHT22;9834;48.076;11.878;2022-12-24T05:06:29;9.90;99.90
19397;DHT22;9834;48.076;11.878;2022-12-24T05:08:57;10.00;99.90
19397;DHT22;9834;48.076;11.878;2022-12-24T05:11:25;10.00;99.90
19397;DHT22;9834;48.076;11.878;2022-12-24T05:13:52;10.00;99.90
19397;DHT22;9834;48.076;11.878;2022-12-24T05:16:22;10.00;99.90
19397;DHT22;9834;48.076;11.878;2022-12-24T05:18:50;10.00;99.90
19397;DHT22;9834;48.076;11.878;2022-12-24T05:21:18;10.00;99.90
19397;DHT22;9834;48.076;11.878;2022-12-24T05:23:46;10.00;99.90
19397;DHT22;9834;48.076;11.878;2022-12-24T05:26:34;10.00;99.90
19397;DHT22;9834;48.076;11.878;2022-12-24T05:29:05;9.90;99.90
19397;DHT22;9834;48.076;11.878;2022-12-24T05:31:38;9.90;99.90
19397;DHT22;9834;48.076;11.878;2022-12-24T05:34:08;9.90;99.90
19397;DHT22;9834;48.076;11.878;2022-12-24T05:36:35;9.90;99.90
19397;DHT22;9834;48.076;11.878;2022-12-24T05:39:03;9.90;99.90
19397;DHT22;9834;48.076;11.878;2022-12-24T05:41:32;9.90;99.90
19397;DHT22;9834;48.076;11.878;2022-12-24T05:43:59;9.90;99.90
19397;DHT22;9834;48.076;11.878;2022-12-24T05:46:28;9.90;99.90
19397;DHT22;9834;48.076;11.878;2022-12-24T05:48:56;9.90;99.90
19397;DHT22;9834;48.076;11.878;2022-12-24T05:51:23;9.90;99.90
19397;DHT22;9834;48.076;11.878;2022-12-24T05:53:54;9.90;99.90
19397;DHT22;9834;48.076;11.878;2022-12-24T05:56:22;9.90;99.90
19397;DHT22;9834;48.076;11.878;2022-12-24T05:58:49;9.90;99.90
19397;DHT22;9834;48.076;11.878;2022-12-24T06:01:17;9.90;99.90
19397;DHT22;9834;48.076;11.878;2022-12-24T06:03:46;9.90;99.90
19397;DHT22;9834;48.076;11.878;2022-12-24T06:06:18;9.90;99.90
19397;DHT22;9834;48.076;11.878;2022-12-24T06:08:47;9.90;99.90
19397;DHT22;9834;48.076;11.878;2022-12-24T06:11:16;9.90;99.90
19397;DHT22;9834;48.076;11.878;2022-12-24T06:13:45;9.90;99.90
19397;DHT22;9834;48.076;11.878;2022-12-24T06:16:13;9.90;99.90
19397;DHT22;9834;48.076;11.878;2022-12-24T06:18:43;9.80;99.90
19397;DHT22;9834;48.076;11.878;2022-12-24T06:21:11;9.80;99.90
19397;DHT22;9834;48.076;11.878;2022-12-24T06:23:43;9.80;99.90
19397;DHT22;9834;48.076;11.878;2022-12-24T06:26:12;9.80;99.90
19397;DHT22;9834;48.076;11.878;2022-12-24T06:28:40;9.90;99.90
19397;DHT22;9834;48.076;11.878;2022-12-24T06:31:11;10.00;99.90
19397;DHT22;9834;48.076;11.878;2022-12-24T06:33:40;10.00;99.90
19397;DHT22;9834;48.076;11.878;2022-12-24T06:36:08;10.00;99.90
19397;DHT22;9834;48.076;11.878;2022-12-24T06:38:35;10.00;99.90
19397;DHT22;9834;48.076;11.878;2022-12-24T06:41:07;10.00;99.90
19397;DHT22;9834;48.076;11.878;2022-12-24T06:43:34;9.90;99.90
19397;DHT22;9834;48.076;11.878;2022-12-24T06:46:04;10.00;99.90
19397;DHT22;9834;48.076;11.878;2022-12-24T06:48:31;9.90;99.90
19397;DHT22;9834;48.076;11.878;2022-12-24T06:51:00;9.90;99.90
19397;DHT22;9834;48.076;11.878;2022-12-24T06:53:27;9.90;99.90
19397;DHT22;9834;48.076;11.878;2022-12-24T06:56:00;9.80;99.90
19397;DHT22;9834;48.076;11.878;2022-12-24T06:58:38;9.80;99.90
19397;DHT22;9834;48.076;11.878;2022-12-24T07:01:11;9.80;99.90
19397;DHT22;9834;48.076;11.878;2022-12-24T07:03:38;9.80;99.90
19397;DHT22;9834;48.076;11.878;2022-12-24T07:06:11;9.70;99.90
19397;DHT22;9834;48.076;11.878;2022-12-24T07:08:40;9.70;99.90
19397;DHT22;9834;48.076;11.878;2022-12-24T07:11:08;9.70;99.90
19397;DHT22;9834;48.076;11.878;2022-12-24T07:13:37;9.60;99.90
19397;DHT22;9834;48.076;11.878;2022-12-24T07:16:04;9.70;99.90
19397;DHT22;9834;48.076;11.878;2022-12-24T07:18:31;9.60;99.90
19397;DHT22;9834;48.076;11.878;2022-12-24T07:21:01;9.60;99.90
19397;DHT22;9834;48.076;11.878;2022-12-24T07:23:29;9.60;99.90
19397;DHT22;9834;48.076;11.878;2022-12-24T07:25:59;9.60;99.90
19397;DHT22;9834;48.076;11.878;2022-12-24T07:28:26;9.60;99.90
19397;DHT22;9834;48.076;11.878;2022-12-24T07:30:56;9.60;99.90
19397;DHT22;9834;48.076;11.878;2022-12-24T07:33:24;9.60;99.90
19397;DHT22;9834;48.076;11.878;2022-12-24T07:35:58;9.60;99.90
19397;DHT22;9834;48.076;11.878;2022-12-24T07:38:25;9.60;99.90
19397;DHT22;9834;48.076;11.878;2022-12-24T07:40:53;9.60;99.90
19397;DHT22;9834;48.076;11.878;2022-12-24T07:43:22;9.60;99.90
19397;DHT22;9834;48.076;11.878;2022-12-24T07:45:50;9.40;99.90
19397;DHT22;9834;48.076;11.878;2022-12-24T07:48:21;9.50;99.90
19397;DHT22;9834;48.076;11.878;2022-12-24T07:50:49;9.50;99.90
19397;DHT22;9834;48.076;11.878;2022-12-24T07:53:16;9.50;99.90
19397;DHT22;9834;48.076;11.878;2022-12-24T07:55:44;9.50;99.90
19397;DHT22;9834;48.076;11.878;2022-12-24T07:58:11;9.60;99.90
19397;DHT22;9834;48.076;11.878;2022-12-24T08:00:40;9.60;99.90
19397;DHT22;9834;48.076;11.878;2022-12-24T08:03:10;9.60;99.90
19397;DHT22;9834;48.076;11.878;2022-12-24T08:05:43;9.60;99.90
19397;DHT22;9834;48.076;11.878;2022-12-24T08:08:10;9.60;99.90
19397;DHT22;9834;48.076;11.878;2022-12-24T08:10:38;9.60;99.90
19397;DHT22;9834;48.076;11.878;2022-12-24T08:13:05;9.60;99.90
19397;DHT22;9834;48.076;11.878;2022-12-24T08:15:32;9.60;99.90
19397;DHT22;9834;48.076;11.878;2022-12-24T08:17:59;9.60;99.90
19397;DHT22;9834;48.076;11.878;2022-12-24T08:20:26;9.60;99.90
19397;DHT22;9834;48.076;11.878;2022-12-24T08:22:54;9.70;99.90
19397;DHT22;9834;48.076;11.878;2022-12-24T08:25:21;9.70;99.90
19397;DHT22;9834;48.076;11.878;2022-12-24T08:27:48;9.70;99.90
19397;DHT22;9834;48.076;11.878;2022-12-24T08:30:16;9.70;99.90
19397;DHT22;9834;48.076;11.878;2022-12-24T08:32:43;9.70;99.90
19397;DHT22;9834;48.076;11.878;2022-12-24T08:35:10;9.70;99.90
19397;DHT22;9834;48.076;11.878;2022-12-24T08:37:37;9.70;99.90
19397;DHT22;9834;48.076;11.878;2022-12-24T08:40:07;9.60;99.90
19397;DHT22;9834;48.076;11.878;2022-12-24T08:42:34;9.60;99.90
19397;DHT22;9834;48.076;11.878;2022-12-24T08:45:01;9.70;99.90
19397;DHT22;9834;48.076;11.878;2022-12-24T08:47:28;9.70;99.90
19397;DHT22;9834;48.076;11.878;2022-12-24T08:49:55;9.70;99.90
19397;DHT22;9834;48.076;11.878;2022-12-24T08:52:22;9.70;99.90
19397;DHT22;9834;48.076;11.878;2022-12-24T08:54:49;9.70;99.80
19397;DHT22;9834;48.076;11.878;2022-12-24T08:57:18;9.80;99.50
19397;DHT22;9834;48.076;11.878;2022-12-24T08:59:45;9.80;99.90
19397;DHT22;9834;48.076;11.878;2022-12-24T09:02:14;9.90;99.40
19397;DHT22;9834;48.076;11.878;2022-12-24T09:04:41;9.80;99.90
19397;DHT22;9834;48.076;11.878;2022-12-24T09:07:09;9.80;99.70
19397;DHT22;9834;48.076;11.878;2022-12-24T09:09:36;9.80;99.90
19397;DHT22;9834;48.076;11.878;2022-12-24T09:12:04;9.80;99.00
19397;DHT22;9834;48.076;11.878;2022-12-24T09:14:33;9.90;99.10
19397;DHT22;9834;48.076;11.878;2022-12-24T09:17:00;9.90;98.90
19397;DHT22;9834;48.076;11.878;2022-12-24T09:19:27;10.00;98.60
19397;DHT22;9834;48.076;11.878;2022-12-24T09:21:54;10.00;97.50
19397;DHT22;9834;48.076;11.878;2022-12-24T09:24:21;10.00;97.70
19397;DHT22;9834;48.076;11.878;2022-12-24T09:26:48;10.10;98.10
19397;DHT22;9834;48.076;11.878;2022-12-24T09:29:16;10.10;97.60
19397;DHT22;9834;48.076;11.878;2022-12-24T09:31:44;10.20;97.90
19397;DHT22;9834;48.076;11.878;2022-12-24T09:34:11;10.30;97.10
19397;DHT22;9834;48.076;11.878;2022-12-24T09:36:38;10.30;97.00
19397;DHT22;9834;48.076;11.878;2022-12-24T09:39:05;10.40;96.40
19397;DHT22;9834;48.076;11.878;2022-12-24T09:41:42;10.40;97.10
19397;DHT22;9834;48.076;11.878;2022-12-24T09:44:32;10.40;96.60
19397;DHT22;9834;48.076;11.878;2022-12-24T09:47:05;10.50;96.60
19397;DHT22;9834;48.076;11.878;2022-12-24T09:49:42;10.50;96.30
19397;DHT22;9834;48.076;11.878;2022-12-24T09:52:11;10.50;95.30
19397;DHT22;9834;48.076;11.878;2022-12-24T09:54:43;10.40;95.70
19397;DHT22;9834;48.076;11.878;2022-12-24T09:57:17;10.40;95.10
19397;DHT22;9834;48.076;11.878;2022-12-24T09:59:47;10.30;96.10
19397;DHT22;9834;48.076;11.878;2022-12-24T10:02:19;10.40;95.90
19397;DHT22;9834;48.076;11.878;2022-12-24T10:04:47;10.40;95.20
19397;DHT22;9834;48.076;11.878;2022-12-24T10:07:27;10.40;95.50
19397;DHT22;9834;48.076;11.878;2022-12-24T10:10:02;10.50;95.50
19397;DHT22;9834;48.076;11.878;2022-12-24T10:12:34;10.50;95.00
19397;DHT22;9834;48.076;11.878;2022-12-24T10:15:09;10.50;95.10
19397;DHT22;9834;48.076;11.878;2022-12-24T10:17:50;10.60;95.30
19397;DHT22;9834;48.076;11.878;2022-12-24T10:20:30;10.60;94.50
19397;DHT22;9834;48.076;11.878;2022-12-24T10:23:04;10.60;93.60
19397;DHT22;9834;48.076;11.878;2022-12-24T10:25:37;10.60;92.90
19397;DHT22;9834;48.076;11.878;2022-12-24T10:28:16;10.60;93.60
19397;DHT22;9834;48.076;11.878;2022-12-24T10:30:47;10.50;93.70
19397;DHT22;9834;48.076;11.878;2022-12-24T10:33:19;10.50;94.00
19397;DHT22;9834;48.076;11.878;2022-12-24T10:35:49;10.60;94.10
19397;DHT22;9834;48.076;11.878;2022-12-24T10:38:17;10.60;92.40
19397;DHT22;9834;48.076;11.878;2022-12-24T10:40:46;10.60;92.30
19397;DHT22;9834;48.076;11.878;2022-12-24T10:43:16;10.70;92.30
19397;DHT22;9834;48.076;11.878;2022-12-24T10:45:45;10.90;91.50
19397;DHT22;9834;48.076;11.878;2022-12-24T10:48:20;10.90;91.50
19397;DHT22;9834;48.076;11.878;2022-12-24T10:50:55;11.00;91.70
19397;DHT22;9834;48.076;11.878;2022-12-24T10:53:30;11.00;91.90
19397;DHT22;9834;48.076;11.878;2022-12-24T10:56:03;10.90;91.10
19397;DHT22;9834;48.076;11.878;2022-12-24T10:58:31;10.80;91.10
19397;DHT22;9834;48.076;11.878;2022-12-24T11:00:59;10.70;91.30
19397;DHT22;9834;48.076;11.878;2022-12-24T11:03:33;10.60;91.40
19397;DHT22;9834;48.076;11.878;2022-12-24T11:06:06;10.60;91.70
19397;DHT22;9834;48.076;11.878;2022-12-24T11:08:34;10.60;91.20
19397;DHT22;9834;48.076;11.878;2022-12-24T11:11:04;10.70;90.90
19397;DHT22;9834;48.076;11.878;2022-12-24T11:13:34;10.80;91.40
19397;DHT22;9834;48.076;11.878;2022-12-24T11:16:06;10.90;90.90
19397;DHT22;9834;48.076;11.878;2022-12-24T11:18:37;11.00;91.10
19397;DHT22;9834;48.076;11.878;2022-12-24T11:21:05;11.20;91.50
19397;DHT22;9834;48.076;11.878;2022-12-24T11:23:32;11.30;90.40
19397;DHT22;9834;48.076;11.878;2022-12-24T11:26:00;11.30;90.20
19397;DHT22;9834;48.076;11.878;2022-12-24T11:28:31;11.40;88.80
19397;DHT22;9834;48.076;11.878;2022-12-24T11:31:01;11.40;89.00
19397;DHT22;9834;48.076;11.878;2022-12-24T11:33:30;11.50;88.20
19397;DHT22;9834;48.076;11.878;2022-12-24T11:36:02;11.60;88.30
19397;DHT22;9834;48.076;11.878;2022-12-24T11:38:34;11.60;89.30
19397;DHT22;9834;48.076;11.878;2022-12-24T11:41:07;11.60;86.80
19397;DHT22;9834;48.076;11.878;2022-12-24T11:43:44;11.60;86.90
19397;DHT22;9834;48.076;11.878;2022-12-24T11:46:20;11.70;85.80
19397;DHT22;9834;48.076;11.878;2022-12-24T11:49:04;11.60;85.80
19397;DHT22;9834;48.076;11.878;2022-12-24T11:51:39;11.50;86.90
19397;DHT22;9834;48.076;11.878;2022-12-24T11:54:13;11.40;87.00
19397;DHT22;9834;48.076;11.878;2022-12-24T11:56:45;11.20;88.00
19397;DHT22;9834;48.076;11.878;2022-12-24T11:59:18;11.00;87.30
19397;DHT22;9834;48.076;11.878;2022-12-24T12:01:53;11.30;89.00
19397;DHT22;9834;48.076;11.878;2022-12-24T12:04:24;11.50;88.40
19397;DHT22;9834;48.076;11.878;2022-12-24T12:06:58;11.70;87.50
19397;DHT22;9834;48.076;11.878;2022-12-24T12:09:28;11.80;86.60
19397;DHT22;9834;48.076;11.878;2022-12-24T12:11:59;11.90;87.00
19397;DHT22;9834;48.076;11.878;2022-12-24T12:14:30;11.80;87.90
19397;DHT22;9834;48.076;11.878;2022-12-24T12:17:04;11.70;87.70
19397;DHT22;9834;48.076;11.878;2022-12-24T12:19:40;11.60;87.90
19397;DHT22;9834;48.076;11.878;2022-12-24T12:22:17;11.50;88.30
19397;DHT22;9834;48.076;11.878;2022-12-24T12:24:50;11.50;90.00
19397;DHT22;9834;48.076;11.878;2022-12-24T12:27:29;11.50;88.80
19397;DHT22;9834;48.076;11.878;2022-12-24T12:30:04;11.40;88.90
19397;DHT22;9834;48.076;11.878;2022-12-24T12:32:40;11.40;90.10
19397;DHT22;9834;48.076;11.878;2022-12-24T12:35:27;11.40;90.10
19397;DHT22;9834;48.076;11.878;2022-12-24T12:37:59;11.50;88.40
19397;DHT22;9834;48.076;11.878;2022-12-24T12:40:54;11.50;89.50
19397;DHT22;9834;48.076;11.878;2022-12-24T12:43:34;11.60;89.70
19397;DHT22;9834;48.076;11.878;2022-12-24T12:46:10;11.60;89.20
19397;DHT22;9834;48.076;11.878;2022-12-24T12:48:52;11.50;89.30
19397;DHT22;9834;48.076;11.878;2022-12-24T12:51:33;11.40;89.80
19397;DHT22;9834;48.076;11.878;2022-12-24T12:54:29;11.30;89.40
19397;DHT22;9834;48.076;11.878;2022-12-24T12:57:02;11.20;90.80
19397;DHT22;9834;48.076;11.878;2022-12-24T12:59:34;11.20;90.80
19397;DHT22;9834;48.076;11.878;2022-12-24T13:02:33;11.20;90.80
19397;DHT22;9834;48.076;11.878;2022-12-24T13:05:23;11.10;91.40
19397;DHT22;9834;48.076;11.878;2022-12-24T13:08:11;11.10;91.50
19397;DHT22;9834;48.076;11.878;2022-12-24T13:11:02;11.10;91.40
19397;DHT22;9834;48.076;11.878;2022-12-24T13:14:05;11.30;91.60
19397;DHT22;9834;48.076;11.878;2022-12-24T13:17:10;11.40;91.20
19397;DHT22;9834;48.076;11.878;2022-12-24T13:22:36;11.70;91.10
19397;DHT22;9834;48.076;11.878;2022-12-24T13:25:20;11.90;89.70
19397;DHT22;9834;48.076;11.878;2022-12-24T13:27:49;12.40;89.10
19397;DHT22;9834;48.076;11.878;2022-12-24T13:30:35;12.90;87.00
19397;DHT22;9834;48.076;11.878;2022-12-24T13:33:08;13.00;85.80
19397;DHT22;9834;48.076;11.878;2022-12-24T13:35:38;13.20;84.00
19397;DHT22;9834;48.076;11.878;2022-12-24T13:38:38;13.20;83.50
19397;DHT22;9834;48.076;11.878;2022-12-24T13:44:31;12.70;84.90
19397;DHT22;9834;48.076;11.878;2022-12-24T13:49:52;12.00;87.00
19397;DHT22;9834;48.076;11.878;2022-12-24T13:52:25;11.70;87.50
19397;DHT22;9834;48.076;11.878;2022-12-24T13:55:14;11.60;88.90
19397;DHT22;9834;48.076;11.878;2022-12-24T13:57:45;11.60;89.70
19397;DHT22;9834;48.076;11.878;2022-12-24T14:00:35;11.80;89.50
19397;DHT22;9834;48.076;11.878;2022-12-24T14:03:15;11.90;89.50
19397;DHT22;9834;48.076;11.878;2022-12-24T14:05:48;11.90;88.20
19397;DHT22;9834;48.076;11.878;2022-12-24T14:08:27;12.20;87.30
19397;DHT22;9834;48.076;11.878;2022-12-24T14:11:04;12.10;87.20
19397;DHT22;9834;48.076;11.878;2022-12-24T14:13:53;11.90;88.10
19397;DHT22;9834;48.076;11.878;2022-12-24T14:16:22;11.70;88.60
19397;DHT22;9834;48.076;11.878;2022-12-24T14:18:58;11.40;90.00
19397;DHT22;9834;48.076;11.878;2022-12-24T14:21:28;11.20;90.90
19397;DHT22;9834;48.076;11.878;2022-12-24T14:24:02;11.00;91.40
19397;DHT22;9834;48.076;11.878;2022-12-24T14:26:35;10.80;91.60
19397;DHT22;9834;48.076;11.878;2022-12-24T14:29:19;10.70;92.20
19397;DHT22;9834;48.076;11.878;2022-12-24T14:31:53;10.60;92.50
19397;DHT22;9834;48.076;11.878;2022-12-24T14:34:20;10.40;93.50
19397;DHT22;9834;48.076;11.878;2022-12-24T14:36:50;10.30;94.10
19397;DHT22;9834;48.076;11.878;2022-12-24T14:39:23;10.20;94.80
19397;DHT22;9834;48.076;11.878;2022-12-24T14:42:01;10.00;95.70
19397;DHT22;9834;48.076;11.878;2022-12-24T14:44:39;9.90;96.90
19397;DHT22;9834;48.076;11.878;2022-12-24T14:47:19;9.80;97.60
19397;DHT22;9834;48.076;11.878;2022-12-24T14:50:09;9.70;98.00
19397;DHT22;9834;48.076;11.878;2022-12-24T14:52:47;9.60;98.10
19397;DHT22;9834;48.076;11.878;2022-12-24T14:55:34;9.60;98.80
19397;DHT22;9834;48.076;11.878;2022-12-24T14:58:25;9.50;99.40
19397;DHT22;9834;48.076;11.878;2022-12-24T15:00:57;9.40;99.90
19397;DHT22;9834;48.076;11.878;2022-12-24T15:03:27;9.30;99.90
19397;DHT22;9834;48.076;11.878;2022-12-24T15:05:57;9.20;99.90
19397;DHT22;9834;48.076;11.878;2022-12-24T15:08:28;9.00;99.90
19397;DHT22;9834;48.076;11.878;2022-12-24T15:11:04;8.80;99.90
19397;DHT22;9834;48.076;11.878;2022-12-24T15:13:36;8.80;99.90
19397;DHT22;9834;48.076;11.878;2022-12-24T15:16:07;8.70;99.90
19397;DHT22;9834;48.076;11.878;2022-12-24T15:18:40;8.60;99.90
19397;DHT22;9834;48.076;11.878;2022-12-24T15:21:14;8.60;99.90
19397;DHT22;9834;48.076;11.878;2022-12-24T15:23:47;8.40;99.90
19397;DHT22;9834;48.076;11.878;2022-12-24T15:26:20;8.50;99.90
19397;DHT22;9834;48.076;11.878;2022-12-24T15:28:48;8.40;99.90
19397;DHT22;9834;48.076;11.878;2022-12-24T15:31:16;8.30;99.90
19397;DHT22;9834;48.076;11.878;2022-12-24T15:33:52;8.30;99.90
19397;DHT22;9834;48.076;11.878;2022-12-24T15:36:26;8.20;99.90
19397;DHT22;9834;48.076;11.878;2022-12-24T15:38:57;8.10;99.90
19397;DHT22;9834;48.076;11.878;2022-12-24T15:41:26;7.90;99.90
19397;DHT22;9834;48.076;11.878;2022-12-24T15:44:00;7.80;99.90
19397;DHT22;9834;48.076;11.878;2022-12-24T15:46:29;7.60;99.90
19397;DHT22;9834;48.076;11.878;2022-12-24T15:48:59;7.50;99.90
19397;DHT22;9834;48.076;11.878;2022-12-24T15:51:30;7.40;99.90
19397;DHT22;9834;48.076;11.878;2022-12-24T15:54:01;7.30;99.90
19397;DHT22;9834;48.076;11.878;2022-12-24T15:56:34;7.50;99.90
19397;DHT22;9834;48.076;11.878;2022-12-24T15:59:26;7.60;99.90
19397;DHT22;9834;48.076;11.878;2022-12-24T16:01:56;7.50;99.90
19397;DHT22;9834;48.076;11.878;2022-12-24T16:04:26;7.50;99.90
19397;DHT22;9834;48.076;11.878;2022-12-24T16:06:56;7.50;99.90
19397;DHT22;9834;48.076;11.878;2022-12-24T16:09:40;7.60;99.90
19397;DHT22;9834;48.076;11.878;2022-12-24T16:12:14;7.70;99.90
19397;DHT22;9834;48.076;11.878;2022-12-24T16:14:46;7.80;99.90
19397;DHT22;9834;48.076;11.878;2022-12-24T16:17:19;7.80;99.90
19397;DHT22;9834;48.076;11.878;2022-12-24T16:19:50;7.90;99.90